Time;durP1;ratioP1;P1;durP2;ratioP2;P2;SDS_P1;SDS_P2;PMS_P1;PMS_P2;Temp;Humidity;BMP_temperature;BMP_pressure;BME280_temperature;BME280_humidity;BME280_pressure;Samples;Min_cycle;Max_cycle;Signal;HPM_P1;HPM_P2
2021/08/22 00:01:05;;;;;;;7.50;3.53;;;25.50;25.50;;;;;;21129338;27;81063;-77
2021/08/22 00:11:08;;;;;;;8.90;3.75;;;25.50;25.30;;;;;;21130881;27;80540;-75
2021/08/22 00:21:11;;;;;;;12.30;3.08;;;25.40;25.70;;;;;;21130357;27;81024;-74
2021/08/22 00:31:16;;;;;;;8.63;3.72;;;25.20;25.70;;;;;;21129983;27;80246;-73
2021/08/22 00:41:21;;;;;;;6.72;3.33;;;25.00;25.70;;;;;;21146791;27;80734;-71
2021/08/22 00:51:24;;;;;;;10.73;3.95;;;24.90;26.00;;;;;;21128364;27;81885;-73
2021/08/22 01:01:29;;;;;;;9.85;3.17;;;24.70;26.60;;;;;;21127777;27;80966;-73
2021/08/22 01:11:35;;;;;;;8.90;3.40;;;24.60;26.90;;;;;;21125686;27;80740;-73
2021/08/22 01:21:41;;;;;;;7.05;3.10;;;24.40;27.20;;;;;;21126516;27;80022;-74
2021/08/22 01:31:50;;;;;;;7.90;3.58;;;24.30;27.60;;;;;;21143912;27;80757;-75
2021/08/22 01:42:12;;;;;;;9.07;4.30;;;24.20;27.20;;;;;;21128622;27;81405;-74
2021/08/22 01:52:32;;;;;;;5.28;3.33;;;24.00;27.30;;;;;;21126939;27;81132;-74
2021/08/22 02:03:18;;;;;;;7.85;3.53;;;23.90;28.00;;;;;;21126192;27;80102;-74
2021/08/22 02:13:40;;;;;;;6.05;3.03;;;23.80;28.20;;;;;;21088500;27;80748;-73
2021/08/22 02:24:00;;;;;;;7.68;2.90;;;23.50;28.70;;;;;;21128428;27;80741;-75
2021/08/22 02:34:22;;;;;;;7.30;3.70;;;23.50;28.80;;;;;;21126343;27;80710;-74
2021/08/22 02:44:38;;;;;;;10.52;3.05;;;23.40;29.10;;;;;;21124781;27;80411;-76
2021/08/22 02:54:54;;;;;;;5.57;3.05;;;23.30;28.80;;;;;;21124629;27;83195;-72
2021/08/22 03:05:13;;;;;;;5.28;3.03;;;23.20;29.30;;;;;;21122450;27;79935;-73
2021/08/22 03:15:26;;;;;;;9.10;3.10;;;22.90;29.30;;;;;;21120312;27;80649;-73
2021/08/22 03:25:39;;;;;;;11.65;3.05;;;22.70;29.90;;;;;;21120105;27;82268;-75
2021/08/22 03:35:49;;;;;;;7.10;2.92;;;22.50;31.30;;;;;;21148144;27;80946;-76
2021/08/22 03:46:01;;;;;;;8.05;2.75;;;22.40;31.10;;;;;;21133579;27;81533;-73
2021/08/22 03:56:08;;;;;;;5.95;2.80;;;22.00;31.30;;;;;;21131754;27;81047;-73
2021/08/22 04:06:15;;;;;;;7.93;3.28;;;21.80;32.00;;;;;;21131221;27;80652;-74
2021/08/22 04:16:22;;;;;;;6.70;2.85;;;21.70;32.60;;;;;;21131212;27;82123;-76
2021/08/22 04:26:33;;;;;;;4.70;2.43;;;21.60;31.90;;;;;;21130649;27;80817;-76
2021/08/22 04:36:43;;;;;;;7.85;2.42;;;21.60;31.80;;;;;;21130155;27;81741;-76
2021/08/22 04:46:51;;;;;;;5.35;3.17;;;21.50;32.00;;;;;;21128747;27;81031;-76
2021/08/22 04:57:01;;;;;;;7.47;2.42;;;21.50;32.10;;;;;;21128795;27;81870;-77
2021/08/22 05:07:05;;;;;;;7.80;2.45;;;21.50;32.30;;;;;;21126823;27;80765;-74
2021/08/22 05:17:11;;;;;;;6.20;2.75;;;21.50;32.70;;;;;;21144211;27;79977;-75
2021/08/22 05:27:14;;;;;;;7.60;3.00;;;21.40;33.20;;;;;;21125620;27;81743;-74
2021/08/22 05:37:16;;;;;;;5.43;3.38;;;21.50;33.20;;;;;;21147926;27;81433;-76
2021/08/22 05:47:22;;;;;;;7.05;3.00;;;21.60;33.10;;;;;;21196639;27;81337;-76
2021/08/22 05:57:25;;;;;;;7.70;3.10;;;21.70;33.20;;;;;;21194999;27;81837;-77
2021/08/22 06:07:28;;;;;;;8.68;3.25;;;21.80;33.10;;;;;;21192286;27;81164;-76
2021/08/22 06:17:34;;;;;;;6.88;3.20;;;21.90;33.30;;;;;;21196227;27;81915;-76
2021/08/22 06:27:37;;;;;;;10.77;3.38;;;22.10;33.10;;;;;;21193872;27;81340;-75
2021/08/22 06:37:40;;;;;;;9.48;3.97;;;22.20;32.90;;;;;;21195725;27;81163;-74
2021/08/22 06:47:46;;;;;;;6.95;2.72;;;22.30;32.70;;;;;;21194528;27;81157;-75
2021/08/22 06:57:52;;;;;;;9.32;3.40;;;22.60;32.90;;;;;;21190162;27;81374;-76
2021/08/22 07:07:54;;;;;;;5.55;2.88;;;22.90;32.70;;;;;;21130452;27;81609;-75
2021/08/22 07:17:58;;;;;;;9.07;3.45;;;23.20;32.30;;;;;;21118530;27;80998;-65
2021/08/22 07:28:01;;;;;;;8.32;3.30;;;23.30;32.30;;;;;;21140419;27;81176;-63
2021/08/22 07:38:03;;;;;;;8.60;3.35;;;23.70;32.20;;;;;;21120937;27;82156;-66
2021/08/22 07:48:06;;;;;;;10.93;3.75;;;23.90;32.00;;;;;;21120149;27;80895;-64
2021/08/22 07:58:09;;;;;;;6.65;3.03;;;24.30;31.70;;;;;;21121395;27;81877;-66
2021/08/22 08:08:11;;;;;;;9.93;3.17;;;24.70;31.10;;;;;;21134636;27;81184;-64
2021/08/22 08:18:16;;;;;;;7.75;3.00;;;25.30;30.70;;;;;;21131308;27;81354;-67
2021/08/22 08:28:22;;;;;;;7.65;3.17;;;25.90;30.50;;;;;;21136625;27;81150;-66
2021/08/22 08:38:24;;;;;;;17.30;3.20;;;26.40;30.80;;;;;;21135963;27;81084;-66
2021/08/22 08:48:28;;;;;;;5.28;2.95;;;26.80;31.00;;;;;;21117148;27;80708;-67
2021/08/22 08:58:30;;;;;;;11.13;3.20;;;27.30;31.10;;;;;;21122597;27;81031;-65
2021/08/22 09:08:54;;;;;;;6.05;3.15;;;27.60;32.00;;;;;;21126282;27;80295;-64
2021/08/22 09:19:16;;;;;;;7.20;3.10;;;28.00;32.10;;;;;;21127928;27;80562;-63
2021/08/22 09:29:56;;;;;;;8.17;3.27;;;28.40;31.20;;;;;;21125910;27;81419;-65
2021/08/22 09:40:28;;;;;;;6.75;3.28;;;28.90;31.30;;;;;;21145910;27;80756;-64
2021/08/22 09:51:10;;;;;;;12.95;3.42;;;29.60;30.90;;;;;;21125650;27;80493;-64
2021/08/22 10:01:41;;;;;;;8.03;2.93;;;30.60;30.40;;;;;;21142927;27;81859;-64
2021/08/22 10:12:00;;;;;;;10.77;3.45;;;31.40;28.90;;;;;;21142421;27;79885;-65
2021/08/22 10:22:11;;;;;;;7.07;4.65;;;32.50;28.30;;;;;;21123793;27;81160;-66
2021/08/22 10:32:16;;;;;;;13.52;5.60;;;33.70;26.90;;;;;;21123064;27;81811;-65
2021/08/22 10:42:24;;;;;;;9.32;3.60;;;35.50;24.00;;;;;;21122907;27;81571;-65
2021/08/22 10:52:32;;;;;;;8.57;3.83;;;36.70;22.90;;;;;;21121985;27;79827;-65
2021/08/22 11:02:41;;;;;;;7.65;2.90;;;39.30;21.00;;;;;;21119937;27;80688;-64
2021/08/22 11:12:45;;;;;;;7.40;3.40;;;41.60;18.10;;;;;;21136114;27;81041;-65
2021/08/22 11:22:55;;;;;;;6.82;2.95;;;44.20;16.60;;;;;;21119971;27;81008;-65
2021/08/22 11:32:58;;;;;;;6.17;2.93;;;46.00;15.40;;;;;;21137892;27;81003;-65
2021/08/22 11:43:08;;;;;;;8.50;3.25;;;49.10;14.50;;;;;;21120465;27;82009;-65
2021/08/22 11:53:12;;;;;;;8.73;2.92;;;49.90;13.70;;;;;;21125081;27;81040;-64
2021/08/22 12:03:18;;;;;;;7.20;3.13;;;51.10;12.40;;;;;;21150364;27;80647;-65
2021/08/22 12:13:23;;;;;;;7.47;3.40;;;51.10;12.30;;;;;;21132205;27;81072;-63
2021/08/22 12:23:37;;;;;;;5.55;2.92;;;51.60;11.40;;;;;;21131616;27;80694;-67
2021/08/22 12:33:42;;;;;;;7.50;3.33;;;50.30;11.60;;;;;;21130699;27;82240;-64
2021/08/22 12:43:44;;;;;;;7.82;3.75;;;51.00;11.70;;;;;;21130227;27;79894;-64
2021/08/22 12:53:47;;;;;;;9.13;3.67;;;54.30;10.80;;;;;;21129590;27;81916;-63
2021/08/22 13:03:55;;;;;;;7.90;3.93;;;55.00;10.60;;;;;;21145300;27;80448;-64
2021/08/22 13:13:57;;;;;;;9.27;4.03;;;53.70;10.90;;;;;;21128202;27;80343;-65
2021/08/22 13:23:59;;;;;;;5.95;3.65;;;50.40;11.50;;;;;;21126529;27;81632;-64
2021/08/22 13:34:05;;;;;;;4.33;3.93;;;48.40;12.20;;;;;;21126017;27;80639;-64
2021/08/22 13:44:07;;;;;;;4.85;3.80;;;47.70;12.10;;;;;;21126516;27;81067;-66
2021/08/22 13:54:12;;;;;;;8.47;5.00;;;52.80;11.10;;;;;;21125029;27;81022;-65
2021/08/22 14:04:16;;;;;;;8.43;4.80;;;52.70;11.10;;;;;;21124520;27;81140;-65
2021/08/22 14:14:18;;;;;;;8.10;4.82;;;51.40;11.40;;;;;;21123131;27;81648;-65
2021/08/22 14:24:20;;;;;;;7.13;5.25;;;54.00;10.80;;;;;;21141532;27;81184;-64
2021/08/22 14:34:22;;;;;;;8.88;6.25;;;56.20;10.30;;;;;;21121842;27;79974;-66
2021/08/22 14:44:25;;;;;;;7.50;6.80;;;58.20;10.00;;;;;;21121260;27;81070;-65
2021/08/22 14:54:27;;;;;;;9.73;7.20;;;58.40;10.10;;;;;;21121635;27;80856;-69
2021/08/22 15:04:30;;;;;;;12.73;7.03;;;57.50;10.00;;;;;;21139075;27;81214;-66
2021/08/22 15:14:31;;;;;;;12.43;5.55;;;58.20;9.60;;;;;;21138973;27;81837;-64
2021/08/22 15:24:34;;;;;;;13.37;5.53;;;52.60;10.90;;;;;;21138877;27;80051;-65
2021/08/22 15:34:37;;;;;;;14.57;5.03;;;48.50;12.50;;;;;;21134071;27;81085;-64
2021/08/22 15:44:39;;;;;;;11.70;4.78;;;46.70;12.60;;;;;;21132638;27;81658;-64
2021/08/22 15:54:42;;;;;;;8.60;5.63;;;46.90;13.30;;;;;;21150599;27;81745;-65
2021/08/22 16:04:46;;;;;;;8.02;4.60;;;48.60;12.30;;;;;;21149138;27;80739;-66
2021/08/22 16:14:47;;;;;;;13.47;5.40;;;47.70;12.90;;;;;;21130806;27;80697;-65
2021/08/22 16:24:49;;;;;;;11.77;4.47;;;48.20;12.40;;;;;;21131220;27;81725;-66
2021/08/22 16:34:52;;;;;;;12.23;4.15;;;47.00;12.70;;;;;;21128889;27;81586;-59
2021/08/22 16:44:53;;;;;;;15.70;4.72;;;43.90;14.00;;;;;;21147499;27;80065;-66
2021/08/22 16:54:56;;;;;;;15.32;5.13;;;42.50;14.50;;;;;;21128570;27;82059;-61
2021/08/22 17:04:57;;;;;;;12.00;3.83;;;42.40;14.50;;;;;;21047367;27;80688;-61
2021/08/22 17:14:59;;;;;;;11.00;4.22;;;41.20;15.20;;;;;;20976032;27;82068;-61
2021/08/22 17:25:00;;;;;;;15.35;3.95;;;40.50;15.70;;;;;;20955846;27;80422;-60
2021/08/22 17:35:02;;;;;;;18.25;3.70;;;40.10;15.90;;;;;;20951148;27;81338;-62
2021/08/22 17:45:05;;;;;;;9.32;3.92;;;39.40;16.20;;;;;;20954516;27;80801;-61
2021/08/22 17:55:08;;;;;;;10.88;3.90;;;38.60;16.80;;;;;;21028794;27;80569;-63
2021/08/22 18:05:11;;;;;;;14.52;3.97;;;38.10;16.80;;;;;;21081545;27;80611;-62
2021/08/22 18:15:13;;;;;;;16.15;5.00;;;37.80;17.30;;;;;;21124035;27;81833;-61
2021/08/22 18:25:15;;;;;;;17.33;3.55;;;37.40;17.50;;;;;;21140732;27;81863;-63
2021/08/22 18:35:17;;;;;;;10.93;3.35;;;37.30;17.50;;;;;;21140882;27;82002;-65
2021/08/22 18:45:19;;;;;;;16.23;4.43;;;36.40;18.30;;;;;;21140115;27;80969;-62
2021/08/22 18:55:21;;;;;;;14.98;4.70;;;35.70;19.40;;;;;;21120229;27;81855;-62
2021/08/22 19:05:23;;;;;;;19.05;5.70;;;35.10;20.50;;;;;;21131819;27;81301;-70
2021/08/22 19:15:25;;;;;;;14.38;6.10;;;34.60;21.40;;;;;;21133494;27;80730;-71
2021/08/22 19:25:27;;;;;;;15.55;7.25;;;34.20;21.80;;;;;;21125496;27;80832;-71
2021/08/22 19:35:29;;;;;;;14.20;5.97;;;33.90;22.70;;;;;;21125819;27;80061;-71
2021/08/22 19:45:30;;;;;;;19.70;5.70;;;33.50;23.50;;;;;;21125794;27;81425;-72
2021/08/22 19:55:32;;;;;;;19.40;8.75;;;33.30;24.50;;;;;;21125008;27;81901;-71
2021/08/22 20:05:34;;;;;;;20.85;8.07;;;33.00;25.00;;;;;;21129916;27;81950;-70
2021/08/22 20:15:36;;;;;;;21.23;8.32;;;32.80;26.00;;;;;;21129261;27;80789;-73
2021/08/22 20:25:38;;;;;;;24.30;9.63;;;32.70;26.10;;;;;;21129809;27;80785;-72
2021/08/22 20:35:40;;;;;;;21.15;9.05;;;32.70;26.50;;;;;;21131365;27;80953;-72
2021/08/22 20:45:42;;;;;;;20.67;7.63;;;32.50;26.30;;;;;;21128816;27;80692;-74
2021/08/22 20:55:45;;;;;;;22.25;5.65;;;32.40;25.80;;;;;;21127368;27;80976;-73
2021/08/22 21:05:47;;;;;;;20.38;7.38;;;32.20;25.40;;;;;;21146042;27;80441;-73
2021/08/22 21:15:49;;;;;;;22.77;6.85;;;32.00;25.50;;;;;;21126280;27;81088;-72
2021/08/22 21:25:51;;;;;;;15.75;4.95;;;31.90;25.90;;;;;;21124531;27;80758;-71
2021/08/22 21:35:54;;;;;;;11.25;4.57;;;31.80;25.80;;;;;;21124982;27;80895;-72
2021/08/22 21:45:56;;;;;;;14.18;6.35;;;31.50;25.70;;;;;;21124752;27;81876;-72
2021/08/22 21:56:03;;;;;;;19.90;5.13;;;31.30;25.30;;;;;;21123987;27;80676;-72
2021/08/22 22:06:04;;;;;;;18.23;5.60;;;31.10;25.10;;;;;;21123083;27;81635;-72
2021/08/22 22:16:06;;;;;;;19.45;4.75;;;31.00;25.20;;;;;;21122655;27;80033;-75
2021/08/22 22:26:09;;;;;;;12.32;4.05;;;31.00;25.10;;;;;;21122676;27;80752;-73
2021/08/22 22:36:11;;;;;;;16.27;4.18;;;31.20;25.00;;;;;;21121551;27;80839;-72
2021/08/22 22:46:13;;;;;;;14.35;4.03;;;31.20;25.50;;;;;;21120998;27;80710;-73
2021/08/22 22:56:16;;;;;;;15.48;4.20;;;31.00;26.00;;;;;;21120602;27;80689;-71
2021/08/22 23:06:18;;;;;;;16.38;4.15;;;30.90;27.00;;;;;;21120202;27;80708;-72
2021/08/22 23:16:22;;;;;;;12.30;3.80;;;30.70;27.90;;;;;;21137997;27;79843;-73
2021/08/22 23:26:24;;;;;;;24.48;5.22;;;30.60;27.70;;;;;;21118998;27;80715;-72
2021/08/22 23:36:26;;;;;;;18.42;6.07;;;30.60;27.10;;;;;;21119283;27;79973;-72
2021/08/22 23:46:29;;;;;;;21.92;5.07;;;30.60;26.70;;;;;;21121828;27;81778;-72
2021/08/22 23:56:31;;;;;;;13.05;3.95;;;30.50;26.80;;;;;;21133394;27;81903;-76
